• Join FlightAware (Why Join?)
  • Login
  • US Flag GB Flag 
15:57 EDT


 

Airport Tracker/Info


-or-


 

Live Flight TrackerFlight Track Log ✈ N45DJ ✈ 19-Jun-2014 ✈ KBFM - KRMG

Flight Track Log - Related Links

Times and Time Zones

All times are in EDT time to prevent confusion due to time zone crossing. See the N45DJ flight status page for this flight to view local times or setup timezone preferences in your user account.

Time Position Orientation Groundspeed Altitude Reporting Facility
EDT Latitude Longitude Course Direction KTS MPH feet Rate Location/Type
20:04 30.6103 -88.0533 64° Northeast 123 142 1,300  Level Houston Center
20:05 30.6256 -88.0167 64° Northeast 195 224 3,100 1,800 Climbing Houston Center
20:06 30.6642 -87.9875 33° Northeast 175 201 5,100 1,920 Climbing Houston Center
20:07 30.7064 -87.9625 27° Northeast 174 200 7,100 1,860 Climbing Houston Center
20:08 30.7525 -87.9444 19° North 174 200 9,000 1,980 Climbing Houston Center
20:09 30.8078 -87.9222 19° North 174 200 11,200 1,860 Climbing Houston Center
20:10 30.8567 -87.9042 18° North 181 208 12,900 1,500 Climbing Houston Center
20:11 30.9083 -87.8856 17° North 189 217 14,300 1,320 Climbing Houston Center
20:12 30.9622 -87.8694 14° North 197 227 15,700 1,080 Climbing Houston Center
20:13 31.0225 -87.8519 14° North 217 250 16,600 900 Climbing Houston Center
20:14 31.1028 -87.8369 North 240 276 17,600 960 Climbing Houston Center
20:15 31.1728 -87.8236 North 252 290 18,600 1,140 Climbing Houston Center
20:16 31.2289 -87.7889 28° Northeast 238 274 20,000 1,260 Climbing Houston Center
20:17 31.2800 -87.7464 35° Northeast 228 262 21,300 1,260 Climbing Houston Center
20:19 31.3292 -87.7058 35° Northeast 224 258 22,700 1,260 Climbing Houston Center
20:20 31.3897 -87.6567 35° Northeast 219 252 24,000 1,080 Climbing Houston Center
20:21 31.4428 -87.6142 34° Northeast 230 265 25,000 960 Climbing Houston Center
20:22 31.4969 -87.5694 35° Northeast 235 270 26,000 960 Climbing Houston Center
20:23 31.5533 -87.5239 35° Northeast 243 280 27,000 480 Climbing Houston Center
20:24 31.6158 -87.4728 35° Northeast 268 308 27,000  Level Houston Center
20:25 31.6853 -87.4161 35° Northeast 299 344 27,000  Level Houston Center
20:26 31.7625 -87.3583 32° Northeast 303 349 27,000  Level Atlanta Center
20:27 31.8267 -87.3019 37° Northeast 316 364 27,000  Level Atlanta Center
20:28 31.8992 -87.2408 36° Northeast 321 369 27,000  Level Atlanta Center
20:29 31.9761 -87.1778 35° Northeast 321 369 27,000  Level Atlanta Center
20:30 32.0528 -87.1167 34° Northeast 321 369 27,000  Level Atlanta Center
20:31 32.1294 -87.0531 35° Northeast 327 376 27,000  Level Atlanta Center
20:32 32.2039 -86.9892 36° Northeast 327 376 27,000  Level Atlanta Center
20:33 32.2828 -86.9256 34° Northeast 327 376 27,000  Level Atlanta Center
20:34 32.3678 -86.8569 34° Northeast 334 384 27,000  Level Atlanta Center
20:35 32.4422 -86.7928 36° Northeast 334 384 27,000  Level Atlanta Center
20:36 32.5253 -86.7242 35° Northeast 339 390 27,000 -420 Level Atlanta Center
20:37 32.5994 -86.6647 34° Northeast 339 390 26,200 -900 Descending Atlanta Center
20:38 32.6803 -86.5956 36° Northeast 339 390 25,300 -900 Descending Atlanta Center
20:39 32.7631 -86.5264 35° Northeast 344 396 24,500 -900 Descending Atlanta Center
20:40 32.8481 -86.4544 35° Northeast 357 411 23,500 -960 Descending Atlanta Center
20:41 32.9267 -86.3825 38° Northeast 354 407 22,600 -900 Descending Atlanta Center
20:42 33.0072 -86.3203 33° Northeast 354 407 21,700 -900 Descending Atlanta Center
20:43 33.0856 -86.2503 37° Northeast 354 407 20,800 -960 Descending Atlanta Center
20:44 33.1639 -86.1853 35° Northeast 348 400 19,800 -900 Descending Atlanta Center
20:45 33.2425 -86.1153 37° Northeast 348 400 19,000 -780 Descending Atlanta Center
20:46 33.3208 -86.0500 35° Northeast 343 395 18,300 -720 Descending Atlanta Center
20:47 33.3969 -85.9869 35° Northeast 337 388 17,600 -720 Descending Atlanta Center